Time;durP1;ratioP1;P1;durP2;ratioP2;P2;SDS_P1;SDS_P2;PMS_P1;PMS_P2;Temp;Humidity;BMP_temperature;BMP_pressure;BME280_temperature;BME280_humidity;BME280_pressure;Samples;Min_cycle;Max_cycle;Signal;HPM_P1;HPM_P2
2022/04/04 00:02:59;;;;;;;4.03;3.57;;;;;0.20;96478.00;;;;8358626;28;20243;-68
2022/04/04 00:07:03;;;;;;;6.97;3.70;;;;;0.20;96485.00;;;;8355185;28;20229;-67
2022/04/04 00:11:06;;;;;;;3.90;3.50;;;;;0.20;96477.00;;;;8348700;28;20646;-67
2022/04/04 00:15:11;;;;;;;5.40;3.07;;;;;0.30;96479.00;;;;8347593;28;20689;-68
2022/04/04 00:19:15;;;;;;;5.60;3.67;;;;;0.30;96484.00;;;;8352906;28;20307;-67
2022/04/04 00:23:18;;;;;;;5.60;3.37;;;;;0.30;96485.00;;;;8362018;28;20232;-67
2022/04/04 00:27:22;;;;;;;5.10;3.23;;;;;0.20;96480.00;;;;8356778;28;20229;-68
2022/04/04 00:31:26;;;;;;;4.30;3.70;;;;;0.20;96486.00;;;;8361232;28;20228;-67
2022/04/04 00:35:31;;;;;;;5.80;3.70;;;;;0.00;96484.00;;;;8357104;28;20221;-67
2022/04/04 00:39:34;;;;;;;6.23;4.00;;;;;-0.10;96487.00;;;;8360785;28;20216;-67
2022/04/04 00:43:37;;;;;;;6.13;4.10;;;;;-0.30;96484.00;;;;8360177;28;20235;-67
2022/04/04 00:47:41;;;;;;;4.80;3.57;;;;;-0.40;96483.00;;;;8352133;28;20229;-68
2022/04/04 00:51:45;;;;;;;4.80;3.70;;;;;-0.50;96480.00;;;;8354921;28;20230;-67
2022/04/04 00:55:48;;;;;;;4.17;3.23;;;;;-0.50;96479.00;;;;8348595;28;20224;-66
2022/04/04 00:59:51;;;;;;;3.63;2.90;;;;;-0.70;96486.00;;;;8353221;28;20232;-66
2022/04/04 01:03:56;;;;;;;5.93;3.70;;;;;-0.70;96469.00;;;;8355692;28;20230;-66
2022/04/04 01:07:59;;;;;;;4.30;3.63;;;;;-0.60;96468.00;;;;8351297;28;20239;-66
2022/04/04 01:12:04;;;;;;;4.67;3.60;;;;;-0.50;96465.00;;;;8360035;28;20360;-65
2022/04/04 01:16:07;;;;;;;5.83;3.63;;;;;-0.50;96468.00;;;;8349511;28;20654;-66
2022/04/04 01:20:12;;;;;;;4.70;3.30;;;;;-0.40;96465.00;;;;8353752;28;20235;-66
2022/04/04 01:24:19;;;;;;;3.47;3.03;;;;;-0.40;96460.00;;;;8355316;28;20235;-66
2022/04/04 01:28:22;;;;;;;4.27;3.50;;;;;-0.40;96452.00;;;;8363197;28;20772;-66
2022/04/04 01:32:25;;;;;;;5.03;3.80;;;;;-0.40;96453.00;;;;8366682;28;20232;-66
2022/04/04 01:36:28;;;;;;;4.07;3.33;;;;;-0.50;96448.00;;;;8366866;28;20247;-65
2022/04/04 01:40:33;;;;;;;3.77;3.03;;;;;-0.50;96442.00;;;;8362097;28;20316;-65
2022/04/04 01:44:36;;;;;;;5.37;3.30;;;;;-0.50;96438.00;;;;8347937;28;20288;-65
2022/04/04 01:48:39;;;;;;;5.20;3.53;;;;;-0.50;96432.00;;;;8360397;28;20752;-66
2022/04/04 01:53:25;;;;;;;4.53;3.23;;;;;-0.50;96431.00;;;;8347957;28;20229;-65
2022/04/04 01:57:07;;;;;;;5.37;3.70;;;;;-0.50;96428.00;;;;8350844;28;20974;-65
2022/04/04 02:01:12;;;;;;;5.27;3.57;;;;;-0.50;96415.00;;;;8352304;28;20305;-66
2022/04/04 02:05:15;;;;;;;4.93;3.50;;;;;-0.50;96421.00;;;;8360283;28;20327;-66
2022/04/04 02:09:18;;;;;;;4.30;3.30;;;;;-0.50;96409.00;;;;8352681;28;20230;-66
2022/04/04 02:13:25;;;;;;;5.50;3.53;;;;;-0.60;96414.00;;;;8363871;28;20228;-65
2022/04/04 02:17:29;;;;;;;5.07;3.57;;;;;-0.60;96419.00;;;;8363728;28;20230;-67
2022/04/04 02:21:32;;;;;;;3.77;3.37;;;;;-0.60;96417.00;;;;8349789;28;20655;-66
2022/04/04 02:25:35;;;;;;;6.30;3.77;;;;;-0.70;96408.00;;;;8354670;28;20755;-65
2022/04/04 02:29:40;;;;;;;4.73;3.70;;;;;-0.70;96407.00;;;;8350303;28;20778;-66
2022/04/04 02:33:43;;;;;;;8.07;4.07;;;;;-0.80;96400.00;;;;8358665;28;20219;-66
2022/04/04 02:37:47;;;;;;;7.03;4.00;;;;;-0.80;96399.00;;;;8350138;28;20828;-65
2022/04/04 02:41:50;;;;;;;7.73;4.80;;;;;-0.80;96393.00;;;;8351293;28;20216;-66
2022/04/04 02:45:55;;;;;;;9.37;4.77;;;;;-0.80;96387.00;;;;8355838;28;20225;-65
2022/04/04 02:49:58;;;;;;;5.50;4.10;;;;;-0.90;96389.00;;;;8363101;28;20239;-64
2022/04/04 02:54:02;;;;;;;5.87;4.00;;;;;-0.90;96389.00;;;;8356289;28;20217;-63
2022/04/04 02:58:05;;;;;;;6.60;3.70;;;;;-0.90;96391.00;;;;8351851;28;20331;-65
2022/04/04 03:02:09;;;;;;;5.53;3.33;;;;;-1.00;96388.00;;;;8398505;22;20234;-64
2022/04/04 03:06:13;;;;;;;5.53;3.43;;;;;-1.00;96384.00;;;;8376729;28;20716;-66
2022/04/04 03:10:16;;;;;;;5.43;3.43;;;;;-1.10;96384.00;;;;8380437;28;20242;-65
2022/04/04 03:14:19;;;;;;;6.20;3.50;;;;;-1.10;96384.00;;;;8377817;27;20696;-66
2022/04/04 03:18:23;;;;;;;5.63;3.90;;;;;-1.10;96382.00;;;;8379006;28;20236;-65
2022/04/04 03:22:27;;;;;;;4.77;3.60;;;;;-1.10;96387.00;;;;8380788;28;20308;-64
2022/04/04 03:26:32;;;;;;;7.57;3.57;;;;;-1.10;96389.00;;;;8390892;28;20239;-64
2022/04/04 03:30:35;;;;;;;6.10;3.90;;;;;-1.10;96382.00;;;;8381220;28;20792;-63
2022/04/04 03:34:40;;;;;;;5.10;3.63;;;;;-1.20;96378.00;;;;8380969;28;20212;-64
2022/04/04 03:38:43;;;;;;;7.33;4.00;;;;;-1.20;96371.00;;;;8379610;28;20684;-65
2022/04/04 03:42:48;;;;;;;8.93;4.47;;;;;-1.20;96375.00;;;;8384952;28;20220;-65
2022/04/04 03:46:51;;;;;;;7.03;3.80;;;;;-1.20;96367.00;;;;8379414;28;20247;-65
2022/04/04 03:50:55;;;;;;;5.47;3.90;;;;;-1.10;96377.00;;;;8383353;28;20290;-64
2022/04/04 03:54:58;;;;;;;6.40;4.37;;;;;-1.10;96374.00;;;;8379356;28;20677;-65
2022/04/04 03:59:02;;;;;;;10.10;4.27;;;;;-1.20;96376.00;;;;8380177;28;20697;-63
2022/04/04 04:03:05;;;;;;;7.30;4.10;;;;;-1.10;96359.00;;;;8390175;27;20254;-64
2022/04/04 04:07:14;;;;;;;5.13;3.50;;;;;-1.10;96363.00;;;;8396092;27;20258;-66
2022/04/04 04:11:19;;;;;;;6.93;3.80;;;;;-1.10;96373.00;;;;8406371;27;20743;-65
2022/04/04 04:15:25;;;;;;;6.73;3.57;;;;;-1.10;96368.00;;;;8411266;27;20353;-63
2022/04/04 04:23:53;;;;;;;7.27;3.40;;;;;-1.20;96366.00;;;;8332309;28;20310;-64
2022/04/04 04:27:59;;;;;;;6.33;4.20;;;;;-1.20;96366.00;;;;8375249;28;20239;-64
2022/04/04 04:32:03;;;;;;;5.40;3.60;;;;;-1.20;96357.00;;;;8394511;28;20230;-65
2022/04/04 04:36:07;;;;;;;6.73;3.77;;;;;-1.20;96358.00;;;;8403190;28;20235;-64
2022/04/04 04:40:12;;;;;;;7.90;4.03;;;;;-1.10;96357.00;;;;8407546;27;20298;-65
2022/04/04 04:44:15;;;;;;;4.87;3.10;;;;;-1.10;96361.00;;;;8404964;27;21547;-64
2022/04/04 04:48:19;;;;;;;4.87;3.37;;;;;-1.10;96361.00;;;;8391152;27;20250;-65
2022/04/04 04:52:22;;;;;;;4.37;3.40;;;;;-1.10;96358.00;;;;8402527;28;20808;-65
2022/04/04 04:56:27;;;;;;;7.17;4.07;;;;;-1.10;96364.00;;;;8414612;28;20990;-65
2022/04/04 05:00:32;;;;;;;7.33;3.90;;;;;-1.10;96358.00;;;;8416018;28;20218;-64
2022/04/04 05:04:35;;;;;;;6.33;3.73;;;;;-1.10;96355.00;;;;8420713;28;20290;-64
2022/04/04 05:08:38;;;;;;;7.80;4.27;;;;;-1.10;96353.00;;;;8409138;28;20231;-65
2022/04/04 05:12:43;;;;;;;9.20;3.83;;;;;-1.10;96356.00;;;;8414017;28;20318;-65
2022/04/04 05:16:48;;;;;;;5.53;4.47;;;;;-1.00;96365.00;;;;8421830;28;20839;-65
2022/04/04 05:20:54;;;;;;;4.87;3.77;;;;;-1.00;96363.00;;;;8403751;28;20326;-65
2022/04/04 05:25:03;;;;;;;6.20;4.13;;;;;-0.90;96361.00;;;;8374227;27;20307;-64
2022/04/04 05:29:10;;;;;;;6.90;4.20;;;;;-0.80;96368.00;;;;8386983;27;21925;-64
2022/04/04 05:33:14;;;;;;;5.43;4.03;;;;;-0.80;96366.00;;;;8412478;27;20773;-64
2022/04/04 05:37:17;;;;;;;8.83;4.77;;;;;-0.70;96362.00;;;;8425841;28;20696;-64
2022/04/04 05:41:21;;;;;;;7.20;4.33;;;;;-0.60;96359.00;;;;8416805;28;20226;-65
2022/04/04 05:45:26;;;;;;;8.63;4.90;;;;;-0.50;96362.00;;;;8415856;27;20622;-65
2022/04/04 05:49:29;;;;;;;11.67;4.80;;;;;-0.30;96352.00;;;;8403885;27;20240;-65
2022/04/04 05:53:32;;;;;;;6.77;4.50;;;;;-0.20;96356.00;;;;8414108;28;20230;-65
2022/04/04 05:57:38;;;;;;;8.70;4.50;;;;;-0.10;96365.00;;;;8419023;28;20306;-65
2022/04/04 06:01:43;;;;;;;8.70;4.50;;;;;0.00;96353.00;;;;8419204;27;20310;-65
2022/04/04 06:05:49;;;;;;;8.53;4.77;;;;;0.10;96354.00;;;;8404082;28;20224;-65
2022/04/04 06:09:52;;;;;;;9.73;4.70;;;;;0.20;96359.00;;;;8409868;27;20235;-63
2022/04/04 06:14:01;;;;;;;7.77;4.10;;;;;0.30;96358.00;;;;8425562;28;20219;-64
2022/04/04 06:18:06;;;;;;;9.90;4.70;;;;;0.40;96360.00;;;;8405832;27;20649;-64
2022/04/04 06:22:09;;;;;;;12.07;5.93;;;;;0.50;96359.00;;;;8404935;28;20228;-63
2022/04/04 06:26:13;;;;;;;11.93;5.63;;;;;0.50;96353.00;;;;8408565;28;20235;-63
2022/04/04 06:30:16;;;;;;;6.17;3.70;;;;;0.60;96354.00;;;;8415837;28;20229;-64
2022/04/04 06:34:21;;;;;;;4.87;3.73;;;;;0.70;96351.00;;;;8416954;28;20231;-62
2022/04/04 06:38:25;;;;;;;8.50;3.77;;;;;0.70;96351.00;;;;8414285;27;20310;-63
2022/04/04 06:42:28;;;;;;;6.47;3.93;;;;;0.80;96357.00;;;;8407247;28;20885;-63
2022/04/04 06:46:31;;;;;;;5.03;4.53;;;;;0.90;96349.00;;;;8411535;28;20228;-62
2022/04/04 06:50:36;;;;;;;10.37;4.30;;;;;1.00;96356.00;;;;8406684;27;20224;-63
2022/04/04 06:54:39;;;;;;;9.83;4.27;;;;;1.00;96353.00;;;;8407345;28;20235;-64
2022/04/04 06:58:43;;;;;;;5.70;3.73;;;;;1.10;96356.00;;;;8416106;27;20248;-63
2022/04/04 07:02:46;;;;;;;5.83;4.07;;;;;1.20;96354.00;;;;8408824;27;20246;-63
2022/04/04 07:06:51;;;;;;;6.07;3.80;;;;;1.20;96356.00;;;;8412502;28;20681;-64
2022/04/04 07:10:56;;;;;;;8.27;4.33;;;;;1.30;96350.00;;;;8412309;28;20332;-64
2022/04/04 07:14:59;;;;;;;6.33;3.87;;;;;1.40;96345.00;;;;8414480;27;20641;-63
2022/04/04 07:19:02;;;;;;;6.30;4.10;;;;;1.50;96344.00;;;;8419098;27;20243;-64
2022/04/04 07:23:07;;;;;;;7.87;4.80;;;;;1.60;96338.00;;;;8418336;28;20311;-64
2022/04/04 07:27:10;;;;;;;8.10;4.60;;;;;1.70;96340.00;;;;8429586;28;20251;-63
2022/04/04 07:31:14;;;;;;;7.60;5.00;;;;;1.80;96338.00;;;;8417466;27;20243;-64
2022/04/04 07:35:19;;;;;;;8.27;5.20;;;;;2.00;96331.00;;;;8418873;28;20224;-63
2022/04/04 07:39:23;;;;;;;6.73;4.63;;;;;2.10;96339.00;;;;8423543;28;20686;-64
2022/04/04 07:43:27;;;;;;;8.83;5.30;;;;;2.20;96328.00;;;;8429119;28;20227;-63
2022/04/04 07:47:30;;;;;;;8.87;5.37;;;;;2.30;96336.00;;;;8405571;28;20338;-64
2022/04/04 07:51:34;;;;;;;7.77;4.83;;;;;2.30;96328.00;;;;8404451;28;20256;-63
2022/04/04 07:55:39;;;;;;;9.67;5.37;;;;;2.40;96328.00;;;;8408986;28;20218;-64
2022/04/04 07:59:42;;;;;;;6.30;4.80;;;;;2.50;96334.00;;;;8401087;28;20233;-64
2022/04/04 08:03:46;;;;;;;7.33;5.20;;;;;2.60;96328.00;;;;8398109;27;20232;-64
2022/04/04 08:07:51;;;;;;;19.43;8.87;;;;;2.60;96339.00;;;;8398438;28;20773;-64
2022/04/04 08:12:02;;;;;;;7.80;4.93;;;;;2.70;96337.00;;;;8407512;27;20277;-64
2022/04/04 08:16:05;;;;;;;8.53;5.23;;;;;2.70;96315.00;;;;8404033;28;20863;-64
2022/04/04 08:20:10;;;;;;;6.70;5.27;;;;;2.70;96318.00;;;;8407262;27;20353;-64
2022/04/04 08:24:14;;;;;;;7.93;5.40;;;;;2.80;96315.00;;;;8403719;28;20238;-64
2022/04/04 08:28:19;;;;;;;8.10;5.23;;;;;2.80;96308.00;;;;8411358;28;20223;-64
2022/04/04 08:32:24;;;;;;;6.13;5.00;;;;;2.80;96312.00;;;;8408898;27;20221;-63
2022/04/04 08:36:27;;;;;;;7.87;5.43;;;;;2.90;96306.00;;;;8403876;28;20338;-64
2022/04/04 08:40:31;;;;;;;11.83;5.47;;;;;2.90;96308.00;;;;8410537;28;20634;-63
2022/04/04 08:44:39;;;;;;;8.10;5.40;;;;;3.00;96302.00;;;;8409852;27;20311;-63
2022/04/04 08:48:42;;;;;;;8.27;5.27;;;;;3.10;96293.00;;;;8405627;27;20646;-66
2022/04/04 08:52:45;;;;;;;10.47;5.40;;;;;3.10;96293.00;;;;8408912;28;20567;-65
2022/04/04 08:56:49;;;;;;;9.47;5.43;;;;;3.10;96277.00;;;;8401350;28;20230;-66
2022/04/04 09:00:54;;;;;;;8.33;5.67;;;;;3.10;96273.00;;;;8408579;28;20314;-65
2022/04/04 09:05:06;;;;;;;10.60;6.17;;;;;3.20;96277.00;;;;8402354;28;20745;-65
2022/04/04 09:09:10;;;;;;;8.90;5.13;;;;;3.20;96267.00;;;;8402644;28;20240;-65
2022/04/04 09:13:15;;;;;;;8.97;5.73;;;;;3.20;96257.00;;;;8411192;28;20222;-64
2022/04/04 09:17:24;;;;;;;8.57;5.80;;;;;3.20;96263.00;;;;8413892;28;20254;-64
2022/04/04 09:21:34;;;;;;;9.23;6.07;;;;;3.30;96251.00;;;;8417945;28;20245;-65
2022/04/04 09:25:38;;;;;;;8.50;5.70;;;;;3.40;96232.00;;;;8405069;28;20234;-67
2022/04/04 09:29:42;;;;;;;6.70;5.03;;;;;3.50;96244.00;;;;8413715;28;20385;-64
2022/04/04 09:33:47;;;;;;;9.27;5.83;;;;;3.50;96243.00;;;;8411037;28;20245;-63
2022/04/04 09:37:51;;;;;;;5.57;4.40;;;;;3.60;96236.00;;;;8408669;28;20298;-65
2022/04/04 09:41:59;;;;;;;5.97;4.43;;;;;3.60;96230.00;;;;8423232;27;20225;-67
2022/04/04 09:46:11;;;;;;;6.97;4.37;;;;;3.70;96228.00;;;;8418096;28;20234;-67
2022/04/04 09:54:43;;;;;;;8.03;5.53;;;;;3.80;96206.00;;;;8449706;27;20574;-67
2022/04/04 09:58:47;;;;;;;5.50;4.40;;;;;3.90;96188.00;;;;8424667;27;20249;-67
2022/04/04 10:02:52;;;;;;;6.97;4.93;;;;;4.00;96198.00;;;;8414962;27;20226;-68
2022/04/04 10:06:55;;;;;;;6.30;4.20;;;;;4.20;96191.00;;;;8412513;28;20231;-67
2022/04/04 10:11:03;;;;;;;6.47;4.33;;;;;4.30;96191.00;;;;8428608;27;20506;-68
2022/04/04 10:15:08;;;;;;;7.67;4.20;;;;;4.60;96175.00;;;;8397887;28;20249;-70
2022/04/04 10:19:14;;;;;;;9.63;6.93;;;;;4.60;96174.00;;;;8393854;28;20238;-69
2022/04/04 10:23:17;;;;;;;37.90;19.47;;;;;4.70;96177.00;;;;8410676;28;20226;-67
2022/04/04 10:27:23;;;;;;;103.40;47.10;;;;;4.90;96159.00;;;;8414444;28;20265;-67
2022/04/04 10:31:28;;;;;;;20.53;17.10;;;;;5.20;96152.00;;;;8403491;28;20234;-67
2022/04/04 10:35:32;;;;;;;8.53;6.23;;;;;5.00;96141.00;;;;8407201;28;20234;-66
2022/04/04 10:39:41;;;;;;;13.37;11.97;;;;;5.10;96141.00;;;;8403516;28;20227;-67
2022/04/04 10:43:48;;;;;;;6.90;5.37;;;;;5.10;96141.00;;;;8406111;28;20227;-66
2022/04/04 10:48:04;;;;;;;9.17;7.37;;;;;4.90;96129.00;;;;8406089;28;20231;-66
2022/04/04 10:52:10;;;;;;;5.73;4.87;;;;;4.80;96127.00;;;;8407263;28;20232;-65
2022/04/04 10:56:18;;;;;;;7.50;5.77;;;;;4.70;96119.00;;;;8419961;28;20230;-65
2022/04/04 11:00:32;;;;;;;16.73;8.53;;;;;5.10;96109.00;;;;8402757;28;20321;-65
2022/04/04 11:04:36;;;;;;;8.20;6.13;;;;;4.90;96107.00;;;;8400655;28;20225;-65
2022/04/04 11:08:39;;;;;;;9.57;8.53;;;;;5.10;96101.00;;;;8381957;28;20899;-65
2022/04/04 11:12:58;;;;;;;8.17;7.00;;;;;5.10;96085.00;;;;8386890;28;20671;-64
2022/04/04 11:17:23;;;;;;;6.87;4.80;;;;;5.50;96082.00;;;;8391644;28;20235;-65
2022/04/04 11:21:42;;;;;;;6.33;4.00;;;;;5.80;96069.00;;;;8380774;28;21888;-65
2022/04/04 11:25:51;;;;;;;16.63;14.23;;;;;5.80;96068.00;;;;8415301;28;20299;-66
2022/04/04 11:29:55;;;;;;;8.17;5.40;;;;;5.50;96066.00;;;;8378551;28;20311;-67
2022/04/04 11:34:00;;;;;;;4.10;3.70;;;;;5.30;96062.00;;;;8367197;28;20238;-67
2022/04/04 11:38:07;;;;;;;7.77;5.07;;;;;5.50;96060.00;;;;8404419;28;20230;-67
2022/04/04 11:42:10;;;;;;;7.60;5.90;;;;;5.30;96050.00;;;;8385935;28;20215;-66
2022/04/04 11:46:19;;;;;;;6.90;4.47;;;;;5.00;96040.00;;;;8371012;28;20566;-66
2022/04/04 11:50:26;;;;;;;4.53;3.83;;;;;4.80;96020.00;;;;8371995;28;20216;-67
2022/04/04 11:54:39;;;;;;;6.57;4.43;;;;;4.70;96021.00;;;;8376660;28;20701;-67
2022/04/04 11:58:48;;;;;;;5.77;4.70;;;;;4.90;96023.00;;;;8379745;28;20249;-68
2022/04/04 12:02:51;;;;;;;6.07;4.47;;;;;5.00;96008.00;;;;8379006;28;20223;-67
2022/04/04 12:06:56;;;;;;;5.90;4.70;;;;;4.90;96006.00;;;;8408080;28;20302;-66
2022/04/04 12:10:59;;;;;;;6.60;4.50;;;;;4.90;95999.00;;;;8374320;28;20228;-67
2022/04/04 12:15:03;;;;;;;5.40;4.70;;;;;5.20;95983.00;;;;8371709;28;20315;-67
2022/04/04 12:19:10;;;;;;;7.43;4.60;;;;;5.30;95983.00;;;;8377899;28;20223;-68
2022/04/04 12:27:55;;;;;;;6.50;5.60;;;;;5.50;95972.00;;;;8369751;28;20630;-69
2022/04/04 12:31:58;;;;;;;7.90;5.30;;;;;5.20;95952.00;;;;8386582;28;20228;-68
2022/04/04 12:36:02;;;;;;;49.93;25.67;;;;;5.30;95943.00;;;;8382773;28;20229;-68
2022/04/04 12:40:20;;;;;;;23.77;14.63;;;;;5.40;95950.00;;;;8379344;28;20310;-67
2022/04/04 12:44:24;;;;;;;10.40;6.17;;;;;5.60;95933.00;;;;8390100;28;20229;-69
2022/04/04 12:48:38;;;;;;;11.20;7.30;;;;;5.70;95924.00;;;;8408503;28;20237;-69
2022/04/04 12:52:56;;;;;;;9.40;7.07;;;;;6.00;95903.00;;;;8386834;28;20230;-69
2022/04/04 12:57:03;;;;;;;12.97;8.47;;;;;6.10;95899.00;;;;8407494;28;21535;-68
2022/04/04 13:01:15;;;;;;;7.80;5.80;;;;;6.00;95879.00;;;;8410179;28;20227;-68
2022/04/04 13:05:19;;;;;;;16.83;12.97;;;;;5.90;95889.00;;;;8400890;28;20242;-68
2022/04/04 13:09:24;;;;;;;13.10;9.50;;;;;5.90;95870.00;;;;8380538;28;20260;-68
2022/04/04 13:13:30;;;;;;;35.17;26.00;;;;;6.00;95865.00;;;;8388711;28;20238;-69
2022/04/04 13:17:35;;;;;;;261.10;177.80;;;;;6.00;95870.00;;;;8379108;28;20228;-69
2022/04/04 13:21:39;;;;;;;29.70;20.13;;;;;6.00;95862.00;;;;8381579;28;20307;-71
2022/04/04 13:25:44;;;;;;;163.13;86.00;;;;;5.90;95845.00;;;;8377195;28;20234;-69
2022/04/04 13:29:48;;;;;;;47.47;24.83;;;;;6.00;95840.00;;;;8381372;28;20268;-67
2022/04/04 13:33:54;;;;;;;88.07;46.97;;;;;6.00;95839.00;;;;8381566;28;20713;-67
2022/04/04 13:37:57;;;;;;;11.47;8.10;;;;;6.10;95821.00;;;;8374215;28;21219;-67
2022/04/04 13:42:00;;;;;;;10.07;5.80;;;;;6.20;95807.00;;;;8381546;28;20235;-67
2022/04/04 13:46:05;;;;;;;9.07;6.73;;;;;6.40;95794.00;;;;8376543;28;20255;-66
2022/04/04 13:50:09;;;;;;;9.20;6.03;;;;;6.50;95787.00;;;;8380994;28;20310;-67
2022/04/04 13:54:13;;;;;;;10.70;6.37;;;;;6.60;95790.00;;;;8381245;28;20251;-68
2022/04/04 13:58:16;;;;;;;9.63;6.57;;;;;7.20;95771.00;;;;8381342;28;20267;-69
2022/04/04 14:02:21;;;;;;;8.33;6.03;;;;;7.60;95775.00;;;;8381400;28;20334;-69
2022/04/04 14:06:25;;;;;;;9.30;6.30;;;;;7.80;95759.00;;;;8402995;28;20215;-69
2022/04/04 14:10:28;;;;;;;8.23;6.10;;;;;7.90;95763.00;;;;8411220;28;20223;-69
2022/04/04 14:14:32;;;;;;;10.63;7.10;;;;;7.60;95761.00;;;;8409294;28;20579;-69
2022/04/04 14:18:36;;;;;;;10.40;7.03;;;;;7.90;95737.00;;;;8413497;28;20237;-69
2022/04/04 14:22:40;;;;;;;7.20;5.80;;;;;8.10;95715.00;;;;8411889;28;20237;-70
2022/04/04 14:26:44;;;;;;;10.87;6.30;;;;;8.10;95722.00;;;;8414534;28;20237;-70
2022/04/04 14:30:49;;;;;;;8.33;6.73;;;;;7.80;95728.00;;;;8410517;28;20318;-70
2022/04/04 14:34:53;;;;;;;10.93;7.67;;;;;7.50;95720.00;;;;8400308;28;20246;-70
2022/04/04 14:38:57;;;;;;;9.80;6.40;;;;;7.60;95721.00;;;;8397469;28;20234;-70
2022/04/04 14:43:00;;;;;;;18.63;12.60;;;;;7.50;95703.00;;;;8396621;28;20311;-70
2022/04/04 14:47:04;;;;;;;47.50;38.67;;;;;7.40;95697.00;;;;8399925;28;20250;-71
2022/04/04 14:51:41;;;;;;;41.27;33.33;;;;;7.70;95678.00;;;;8398735;28;20219;-70
2022/04/04 14:56:15;;;;;;;66.17;57.37;;;;;7.70;95696.00;;;;8399069;28;20303;-69
2022/04/04 15:00:51;;;;;;;12.83;7.63;;;;;7.50;95687.00;;;;8399188;28;20216;-69
2022/04/04 15:05:28;;;;;;;10.47;7.80;;;;;7.30;95668.00;;;;8399497;28;20303;-68
2022/04/04 15:10:00;;;;;;;14.38;8.07;;;;;7.50;95668.00;;;;8397891;28;20294;-68
2022/04/04 15:14:40;;;;;;;12.77;8.30;;;;;7.70;95666.00;;;;8398230;28;20306;-69
2022/04/04 15:19:16;;;;;;;23.37;13.13;;;;;7.60;95652.00;;;;8398638;28;20261;-69
2022/04/04 15:23:19;;;;;;;10.53;7.67;;;;;7.70;95647.00;;;;8397643;28;20651;-68
2022/04/04 15:27:24;;;;;;;8.67;6.77;;;;;7.90;95636.00;;;;8397533;28;20234;-68
2022/04/04 15:31:58;;;;;;;15.07;7.50;;;;;8.10;95631.00;;;;8397199;28;20568;-68
2022/04/04 15:36:36;;;;;;;9.60;6.90;;;;;8.10;95625.00;;;;8397700;28;20310;-66
2022/04/04 15:41:10;;;;;;;11.15;7.53;;;;;8.30;95638.00;;;;8397551;28;20289;-66
2022/04/04 15:45:49;;;;;;;9.73;7.30;;;;;8.50;95636.00;;;;8390108;28;20223;-66
2022/04/04 15:50:22;;;;;;;9.77;6.27;;;;;8.80;95635.00;;;;8394645;28;20302;-66
2022/04/04 15:59:41;;;;;;;6.38;4.45;;;;;9.00;95637.00;;;;8430466;28;20244;-66
2022/04/04 16:03:46;;;;;;;9.18;4.72;;;;;8.90;95642.00;;;;8431504;28;20715;-67
2022/04/04 16:07:50;;;;;;;6.13;4.82;;;;;8.60;95643.00;;;;8396128;28;20661;-68
2022/04/04 16:12:27;;;;;;;7.37;5.40;;;;;8.30;95638.00;;;;8396766;28;20227;-67
2022/04/04 16:16:32;;;;;;;6.43;5.20;;;;;8.10;95637.00;;;;8395573;28;20648;-67
2022/04/04 16:20:37;;;;;;;8.17;5.33;;;;;8.10;95635.00;;;;8396303;28;20224;-67
2022/04/04 16:25:12;;;;;;;6.93;4.77;;;;;8.00;95627.00;;;;8396656;28;20247;-68
2022/04/04 16:29:50;;;;;;;7.27;5.03;;;;;7.90;95629.00;;;;8394995;28;20239;-68
2022/04/04 16:34:24;;;;;;;8.10;4.67;;;;;7.80;95618.00;;;;8393259;28;20227;-70
2022/04/04 16:39:01;;;;;;;6.73;4.63;;;;;7.70;95621.00;;;;8396201;28;20243;-68
2022/04/04 16:43:39;;;;;;;8.10;5.57;;;;;7.60;95622.00;;;;8394735;28;20680;-71
2022/04/04 16:48:13;;;;;;;6.10;4.80;;;;;7.50;95631.00;;;;8394935;28;20310;-74
2022/04/04 16:52:16;;;;;;;6.17;4.70;;;;;7.40;95652.00;;;;8395440;28;20319;-72
2022/04/04 16:56:28;;;;;;;8.67;5.40;;;;;7.30;95630.00;;;;8394664;28;20326;-72
2022/04/04 17:01:07;;;;;;;7.43;5.70;;;;;7.20;95629.00;;;;8394138;28;20287;-71
2022/04/04 17:05:41;;;;;;;8.53;7.50;;;;;7.10;95621.00;;;;8394245;28;20219;-71
2022/04/04 17:10:19;;;;;;;8.67;6.90;;;;;7.00;95629.00;;;;8394094;28;20247;-70
2022/04/04 17:14:56;;;;;;;7.57;5.80;;;;;7.00;95622.00;;;;8394220;28;20725;-72
2022/04/04 17:19:34;;;;;;;6.93;5.13;;;;;6.90;95617.00;;;;8390505;28;20231;-72
2022/04/04 17:24:15;;;;;;;8.00;5.87;;;;;6.80;95625.00;;;;8390559;28;20298;-70
2022/04/04 17:28:49;;;;;;;13.07;8.50;;;;;6.80;95632.00;;;;8392241;28;20226;-70
2022/04/04 17:33:29;;;;;;;8.97;6.00;;;;;6.70;95630.00;;;;8393620;28;20266;-69
2022/04/04 17:38:04;;;;;;;11.90;6.57;;;;;6.50;95631.00;;;;8393101;28;20307;-68
2022/04/04 17:42:40;;;;;;;7.47;5.20;;;;;6.20;95642.00;;;;8392839;28;20251;-67
2022/04/04 17:47:18;;;;;;;11.13;6.30;;;;;5.80;95651.00;;;;8426635;28;20219;-66
2022/04/04 17:51:52;;;;;;;10.70;6.97;;;;;5.50;95632.00;;;;8427246;28;20219;-66
2022/04/04 17:56:29;;;;;;;9.97;6.50;;;;;5.40;95635.00;;;;8425851;28;20246;-67
2022/04/04 18:01:05;;;;;;;12.77;9.00;;;;;5.10;95646.00;;;;8394098;28;20224;-67
2022/04/04 18:05:39;;;;;;;18.33;13.80;;;;;4.90;95645.00;;;;8403530;28;20227;-68
2022/04/04 18:10:16;;;;;;;16.40;10.70;;;;;4.80;95646.00;;;;8393351;28;20294;-67
2022/04/04 18:14:52;;;;;;;20.97;11.07;;;;;4.70;95625.00;;;;8385882;28;20236;-68
2022/04/04 18:19:31;;;;;;;24.97;15.47;;;;;4.60;95642.00;;;;8397616;28;20223;-68
2022/04/04 18:24:05;;;;;;;18.30;11.00;;;;;4.50;95641.00;;;;8399593;28;20234;-67
2022/04/04 18:28:42;;;;;;;19.73;9.40;;;;;4.40;95634.00;;;;8408886;28;20291;-67
2022/04/04 18:33:19;;;;;;;17.70;10.50;;;;;4.30;95643.00;;;;8399354;28;20307;-69
2022/04/04 18:37:58;;;;;;;15.00;8.70;;;;;4.30;95645.00;;;;8428498;28;20304;-68
2022/04/04 18:42:31;;;;;;;29.03;16.87;;;;;4.20;95649.00;;;;8432525;28;20228;-68
2022/04/04 18:47:08;;;;;;;25.33;14.60;;;;;4.20;95645.00;;;;8433116;28;20243;-68
2022/04/04 18:51:45;;;;;;;24.13;12.00;;;;;4.20;95655.00;;;;8432508;28;20218;-68
2022/04/04 18:56:23;;;;;;;13.67;8.73;;;;;4.30;95650.00;;;;8430975;28;20237;-67
2022/04/04 19:00:29;;;;;;;20.83;12.50;;;;;4.30;95649.00;;;;8432620;28;20219;-65
2022/04/04 19:05:03;;;;;;;34.50;21.27;;;;;4.30;95644.00;;;;8431804;28;20310;-66
2022/04/04 19:09:39;;;;;;;37.57;22.20;;;;;4.30;95632.00;;;;8431726;28;20247;-67
2022/04/04 19:14:13;;;;;;;25.23;12.63;;;;;4.30;95618.00;;;;8431580;28;20301;-66
2022/04/04 19:18:52;;;;;;;26.67;13.30;;;;;4.20;95622.00;;;;8432209;28;20249;-67
2022/04/04 19:23:26;;;;;;;63.53;36.90;;;;;4.20;95628.00;;;;8431069;28;20737;-66
2022/04/04 19:28:03;;;;;;;43.87;25.13;;;;;4.20;95617.00;;;;8431495;28;20310;-67
2022/04/04 19:32:40;;;;;;;25.13;12.57;;;;;4.30;95615.00;;;;8431000;28;20214;-67
2022/04/04 19:37:18;;;;;;;27.37;12.77;;;;;4.30;95622.00;;;;8430658;28;20619;-67
2022/04/04 19:41:53;;;;;;;29.80;13.87;;;;;4.30;95618.00;;;;8426617;28;20297;-63
2022/04/04 19:50:54;;;;;;;27.73;13.33;;;;;4.30;95621.00;;;;8431706;28;20250;-62
2022/04/04 19:54:57;;;;;;;22.23;10.83;;;;;4.30;95624.00;;;;8430206;28;20740;-62
2022/04/04 19:59:35;;;;;;;27.80;14.63;;;;;4.30;95627.00;;;;8431398;28;20309;-62
2022/04/04 20:04:09;;;;;;;19.80;10.40;;;;;4.20;95622.00;;;;8429927;28;20301;-63
2022/04/04 20:08:12;;;;;;;27.23;12.97;;;;;4.30;95626.00;;;;8430208;28;20253;-62
2022/04/04 20:12:49;;;;;;;23.03;12.70;;;;;4.30;95619.00;;;;8429749;28;20649;-63
2022/04/04 20:17:27;;;;;;;15.50;9.47;;;;;4.30;95611.00;;;;8430635;28;20253;-63
2022/04/04 20:22:04;;;;;;;26.23;13.53;;;;;4.20;95613.00;;;;8428525;27;20302;-63
2022/04/04 20:26:41;;;;;;;29.20;13.73;;;;;4.20;95601.00;;;;8428540;28;20219;-64
2022/04/04 20:31:18;;;;;;;18.73;10.07;;;;;4.20;95606.00;;;;8429339;28;20302;-64
2022/04/04 20:35:57;;;;;;;23.80;12.37;;;;;4.30;95607.00;;;;8429299;28;20227;-63
2022/04/04 20:40:00;;;;;;;23.97;11.87;;;;;4.40;95606.00;;;;8429158;28;20268;-63
2022/04/04 20:44:37;;;;;;;23.37;13.60;;;;;4.40;95597.00;;;;8429265;28;20222;-62
2022/04/04 20:48:44;;;;;;;23.90;13.83;;;;;4.50;95594.00;;;;8428274;28;20305;-63
2022/04/04 20:52:49;;;;;;;21.17;11.67;;;;;4.60;95595.00;;;;8429062;28;20629;-63
2022/04/04 20:57:23;;;;;;;21.93;12.63;;;;;4.60;95598.00;;;;8428108;28;20230;-64
2022/04/04 21:02:00;;;;;;;22.50;12.13;;;;;4.70;95586.00;;;;8428761;28;20321;-64
2022/04/04 21:06:04;;;;;;;19.13;11.80;;;;;4.80;95593.00;;;;8429007;28;20310;-63
2022/04/04 21:10:42;;;;;;;19.57;12.27;;;;;4.80;95578.00;;;;8428128;28;20251;-64
2022/04/04 21:14:45;;;;;;;20.70;12.77;;;;;4.80;95576.00;;;;8428345;28;20654;-63
2022/04/04 21:19:22;;;;;;;21.97;11.83;;;;;4.80;95572.00;;;;8427777;28;20225;-63
2022/04/04 21:23:59;;;;;;;20.03;12.20;;;;;4.90;95576.00;;;;8427723;28;20219;-63
2022/04/04 21:28:38;;;;;;;15.67;9.33;;;;;4.90;95566.00;;;;8427277;28;20226;-63